createdAt,value
2019-01-18T00:03:40.040Z,0.80
2019-01-18T00:06:29.261Z,0.90
2019-01-18T00:09:11.515Z,0.90
2019-01-18T00:11:53.324Z,1.00
2019-01-18T00:14:35.029Z,1.00
2019-01-18T00:17:05.063Z,1.00
2019-01-18T00:19:54.217Z,0.90
2019-01-18T00:22:36.030Z,0.90
2019-01-18T00:25:17.899Z,0.90
2019-01-18T00:28:00.030Z,0.80
2019-01-18T00:30:42.155Z,0.80
2019-01-18T00:33:12.271Z,0.80
2019-01-18T00:36:01.502Z,0.80
2019-01-18T00:38:45.073Z,0.80
2019-01-18T00:41:26.798Z,0.80
2019-01-18T00:44:08.297Z,0.80
2019-01-18T00:46:49.679Z,0.80
2019-01-18T00:49:31.826Z,0.80
2019-01-18T00:52:13.352Z,0.80
2019-01-18T00:54:54.846Z,0.70
2019-01-18T00:57:36.959Z,0.70
2019-01-18T01:00:18.534Z,0.70
2019-01-18T01:03:00.945Z,0.60
2019-01-18T01:05:42.609Z,0.50
2019-01-18T01:08:12.760Z,0.50
2019-01-18T01:11:01.925Z,0.50
2019-01-18T01:13:33.600Z,0.50
2019-01-18T01:16:15.621Z,0.40
2019-01-18T01:18:57.086Z,0.40
2019-01-18T01:21:39.220Z,0.40
2019-01-18T01:24:21.058Z,0.40
2019-01-18T01:27:03.250Z,0.30
2019-01-18T01:29:33.501Z,0.40
2019-01-18T01:32:22.682Z,0.40
2019-01-18T01:35:04.320Z,0.40
2019-01-18T01:37:46.276Z,0.40
2019-01-18T01:40:27.950Z,0.40
2019-01-18T01:43:09.672Z,0.30
2019-01-18T01:45:51.265Z,0.30
2019-01-18T01:48:32.997Z,0.40
2019-01-18T01:51:03.178Z,0.30
2019-01-18T01:53:52.593Z,0.20
2019-01-18T01:56:34.697Z,0.10
2019-01-18T01:59:16.687Z,0.10
2019-01-18T02:01:58.642Z,0.10
2019-01-18T02:04:40.554Z,0.10
2019-01-18T02:07:22.698Z,0.10
2019-01-18T02:10:04.796Z,0.10
2019-01-18T02:12:47.453Z,0.10
2019-01-18T02:15:29.371Z,0.20
2019-01-18T02:18:10.804Z,0.10
2019-01-18T02:20:51.312Z,0.00
2019-01-18T02:23:40.638Z,-0.10
2019-01-18T02:26:22.068Z,-0.10
2019-01-18T02:29:04.385Z,-0.10
2019-01-18T02:31:46.117Z,-0.10
2019-01-18T02:34:29.277Z,-0.10
2019-01-18T02:37:11.374Z,-0.10
2019-01-18T02:39:53.414Z,-0.10
2019-01-18T02:42:35.342Z,-0.20
2019-01-18T02:45:17.323Z,-0.20
2019-01-18T02:47:59.453Z,-0.20
2019-01-18T02:50:29.503Z,-0.20
2019-01-18T02:53:11.711Z,-0.20
2019-01-18T02:55:54.023Z,-0.20
2019-01-18T02:58:35.795Z,-0.20
2019-01-18T03:01:17.522Z,-0.30
2019-01-18T03:03:59.176Z,-0.30
2019-01-18T03:06:41.288Z,-0.30
2019-01-18T03:09:22.624Z,-0.40
2019-01-18T03:12:04.103Z,-0.30
2019-01-18T03:14:45.821Z,-0.40
2019-01-18T03:17:27.855Z,-0.40
2019-01-18T03:20:09.954Z,-0.40
2019-01-18T03:22:52.200Z,-0.30
2019-01-18T03:25:28.170Z,-0.40
2019-01-18T03:28:17.397Z,-0.40
2019-01-18T03:30:57.741Z,-0.50
2019-01-18T03:33:46.877Z,-0.40
2019-01-18T03:36:28.788Z,-0.30
2019-01-18T03:39:10.772Z,-0.40
2019-01-18T03:41:52.812Z,-0.40
2019-01-18T03:44:34.566Z,-0.50
2019-01-18T03:47:16.495Z,-0.60
2019-01-18T03:49:46.568Z,-0.80
2019-01-18T03:52:16.623Z,-0.80
2019-01-18T03:54:46.858Z,-0.70
2019-01-18T03:57:17.151Z,-0.60
2019-01-18T03:59:59.565Z,-0.70
2019-01-18T04:02:41.083Z,-0.50
2019-01-18T04:05:23.051Z,-0.70
2019-01-18T04:08:05.379Z,-0.70
2019-01-18T04:10:47.503Z,-0.60
2019-01-18T04:13:29.292Z,-0.60
2019-01-18T04:16:12.392Z,-0.60
2019-01-18T04:18:54.179Z,-0.60
2019-01-18T04:21:36.245Z,-0.50
2019-01-18T04:24:18.257Z,-0.50
2019-01-18T04:27:00.197Z,-0.60
2019-01-18T04:29:41.662Z,-0.60
2019-01-18T04:32:12.039Z,-0.60
2019-01-18T04:34:42.350Z,-0.80
2019-01-18T04:37:23.959Z,-0.70
2019-01-18T04:40:05.835Z,-0.80
2019-01-18T04:42:47.701Z,-0.80
2019-01-18T04:45:29.807Z,-1.00
2019-01-18T04:48:11.883Z,-0.90
2019-01-18T04:50:53.866Z,-1.00
2019-01-18T04:53:24.164Z,-1.00
2019-01-18T04:56:13.531Z,-1.00
2019-01-18T04:58:55.599Z,-1.00
2019-01-18T05:01:37.016Z,-1.10
2019-01-18T05:04:07.236Z,-1.00
2019-01-18T05:06:57.103Z,-1.20
2019-01-18T05:09:39.039Z,-1.30
2019-01-18T05:12:21.156Z,-1.20
2019-01-18T05:15:03.913Z,-1.10
2019-01-18T05:17:45.791Z,-1.10
2019-01-18T05:20:28.124Z,-1.00
2019-01-18T05:23:09.856Z,-1.00
2019-01-18T05:25:51.858Z,-0.90
2019-01-18T05:28:33.594Z,-0.80
2019-01-18T05:31:15.594Z,-0.70
2019-01-18T05:33:57.177Z,-0.70
2019-01-18T05:36:38.826Z,-0.80
2019-01-18T05:39:20.824Z,-0.90
2019-01-18T05:42:02.851Z,-0.80
2019-01-18T05:44:44.733Z,-0.90
2019-01-18T05:47:27.024Z,-0.80
2019-01-18T05:50:09.151Z,-1.00
2019-01-18T05:52:51.090Z,-1.10
2019-01-18T05:55:33.226Z,-1.20
2019-01-18T05:58:15.273Z,-1.20
2019-01-18T06:01:05.114Z,-1.10
2019-01-18T06:03:47.302Z,-1.10
2019-01-18T06:06:29.434Z,-1.10
2019-01-18T06:09:11.126Z,-1.00
2019-01-18T06:11:52.769Z,-0.90
2019-01-18T06:14:34.987Z,-0.90
2019-01-18T06:17:05.895Z,-1.00
2019-01-18T06:19:36.236Z,-1.20
2019-01-18T06:22:06.636Z,-1.20
2019-01-18T06:24:37.115Z,-1.10
2019-01-18T06:27:19.002Z,-1.10
2019-01-18T06:30:00.527Z,-1.20
2019-01-18T06:32:42.619Z,-1.30
2019-01-18T06:35:24.878Z,-1.20
2019-01-18T06:38:07.122Z,-1.10
2019-01-18T06:40:49.732Z,-1.10
2019-01-18T06:43:31.786Z,-1.10
2019-01-18T06:46:13.463Z,-1.10
2019-01-18T06:48:56.061Z,-1.10
2019-01-18T06:51:38.233Z,-1.20
2019-01-18T06:54:19.995Z,-1.20
2019-01-18T06:57:02.084Z,-1.20
2019-01-18T06:59:43.906Z,-1.30
2019-01-18T07:02:25.702Z,-1.40
2019-01-18T07:05:07.830Z,-1.30
2019-01-18T07:07:50.073Z,-1.20
2019-01-18T07:10:31.662Z,-1.30
2019-01-18T07:13:13.748Z,-1.30
2019-01-18T07:15:55.650Z,-1.20
2019-01-18T07:18:37.535Z,-1.20
2019-01-18T07:21:19.339Z,-1.30
2019-01-18T07:24:01.110Z,-1.30
2019-01-18T07:26:43.706Z,-1.40
2019-01-18T07:29:26.018Z,-1.50
2019-01-18T07:32:08.215Z,-1.50
2019-01-18T07:34:49.953Z,-1.50
2019-01-18T07:37:31.741Z,-1.40
2019-01-18T07:40:13.327Z,-1.50
2019-01-18T07:42:55.059Z,-1.40
2019-01-18T07:45:37.142Z,-1.30
2019-01-18T07:48:18.781Z,-1.20
2019-01-18T07:51:00.894Z,-1.20
2019-01-18T07:53:42.852Z,-1.20
2019-01-18T07:56:24.819Z,-1.10
2019-01-18T07:59:06.815Z,-1.00
2019-01-18T08:01:48.293Z,-0.90
2019-01-18T08:04:29.787Z,-0.90
2019-01-18T08:06:59.854Z,-1.00
2019-01-18T08:09:49.067Z,-0.90
2019-01-18T08:12:31.233Z,-0.90
2019-01-18T08:15:12.985Z,-0.80
2019-01-18T08:17:54.447Z,-0.90
2019-01-18T08:20:36.449Z,-0.90
2019-01-18T08:23:18.560Z,-0.90
2019-01-18T08:25:48.616Z,-0.80
2019-01-18T08:28:37.712Z,-0.60
2019-01-18T08:31:07.858Z,-0.40
2019-01-18T08:33:38.060Z,-0.40
2019-01-18T08:36:08.363Z,-0.30
2019-01-18T08:38:38.645Z,-0.30
2019-01-18T08:41:20.908Z,-0.30
2019-01-18T08:43:51.207Z,-0.30
2019-01-18T08:46:40.401Z,-0.20
2019-01-18T08:49:22.067Z,-0.20
2019-01-18T08:52:04.372Z,0.00
2019-01-18T08:54:46.155Z,0.00
2019-01-18T08:57:27.731Z,0.10
2019-01-18T09:00:09.286Z,0.20
2019-01-18T09:02:52.857Z,0.30
2019-01-18T09:05:34.929Z,0.30
2019-01-18T09:08:16.891Z,0.40
2019-01-18T09:10:58.876Z,0.50
2019-01-18T09:13:40.531Z,0.60
2019-01-18T09:16:22.832Z,0.40
2019-01-18T09:19:05.027Z,0.30
2019-01-18T09:21:47.057Z,0.40
2019-01-18T09:24:28.931Z,0.40
2019-01-18T09:27:11.325Z,0.60
2019-01-18T09:29:53.267Z,0.70
2019-01-18T09:32:35.161Z,0.90
2019-01-18T09:35:17.385Z,1.00
2019-01-18T09:37:59.682Z,1.10
2019-01-18T09:40:41.878Z,1.20
2019-01-18T09:43:23.867Z,1.30
2019-01-18T09:45:53.956Z,1.50
2019-01-18T09:48:43.410Z,1.60
2019-01-18T09:51:25.866Z,1.70
2019-01-18T09:53:55.884Z,1.90
2019-01-18T09:56:44.986Z,2.00
2019-01-18T09:59:27.087Z,2.10
2019-01-18T10:02:09.085Z,2.10
2019-01-18T10:04:51.359Z,2.10
2019-01-18T10:07:33.591Z,2.10
2019-01-18T10:10:15.351Z,2.30
2019-01-18T10:12:57.218Z,2.50
2019-01-18T10:15:39.133Z,2.60
2019-01-18T10:18:20.782Z,2.60
2019-01-18T10:21:03.154Z,2.80
2019-01-18T10:23:45.225Z,3.10
2019-01-18T10:26:27.060Z,3.80
2019-01-18T10:29:09.273Z,5.30
2019-01-18T10:31:56.061Z,6.80
2019-01-18T10:34:34.554Z,8.20
2019-01-18T10:37:16.670Z,9.40
2019-01-18T10:39:58.318Z,10.60
2019-01-18T10:42:40.327Z,11.40
2019-01-18T10:45:22.327Z,12.10
2019-01-18T10:48:04.367Z,12.30
2019-01-18T10:50:34.762Z,12.30
2019-01-18T10:53:23.897Z,12.20
2019-01-18T10:56:05.239Z,12.10
2019-01-18T10:58:47.077Z,11.60
2019-01-18T11:01:29.302Z,10.70
2019-01-18T11:04:11.030Z,9.30
2019-01-18T11:06:52.971Z,8.50
2019-01-18T11:09:34.611Z,7.70
2019-01-18T11:12:16.337Z,7.80
2019-01-18T11:14:58.072Z,8.50
2019-01-18T11:17:40.303Z,8.90
2019-01-18T11:20:22.314Z,9.30
2019-01-18T11:23:04.467Z,9.10
2019-01-18T11:25:46.589Z,9.50
2019-01-18T11:28:28.155Z,9.80
2019-01-18T11:31:10.112Z,8.50
2019-01-18T11:33:51.812Z,8.40
2019-01-18T11:36:33.650Z,8.40
2019-01-18T11:39:13.884Z,8.80
2019-01-18T11:42:05.288Z,8.80
2019-01-18T11:45:06.077Z,8.80
2019-01-18T11:47:48.192Z,9.10
2019-01-18T11:50:30.207Z,8.80
2019-01-18T11:53:12.158Z,8.60
2019-01-18T11:55:54.422Z,8.40
2019-01-18T11:58:36.237Z,8.60
2019-01-18T12:01:18.806Z,8.60
2019-01-18T12:04:00.314Z,8.40
2019-01-18T12:06:41.752Z,7.90
2019-01-18T12:09:23.682Z,7.80
2019-01-18T12:12:05.625Z,8.10
2019-01-18T12:14:47.525Z,8.60
2019-01-18T12:17:29.358Z,8.90
2019-01-18T12:20:11.574Z,8.60
2019-01-18T12:22:53.732Z,9.30
2019-01-18T12:25:35.404Z,9.90
2019-01-18T12:28:15.662Z,10.50
2019-01-18T12:31:04.869Z,11.70
2019-01-18T12:33:46.965Z,13.20
2019-01-18T12:36:29.307Z,14.30
2019-01-18T12:39:11.248Z,15.20
2019-01-18T12:41:53.410Z,14.80
2019-01-18T12:44:23.479Z,14.90
2019-01-18T12:47:12.792Z,15.00
2019-01-18T12:49:54.592Z,15.20
2019-01-18T12:52:36.599Z,14.80
2019-01-18T12:55:18.409Z,14.50
2019-01-18T12:57:59.786Z,14.10
2019-01-18T13:00:30.424Z,14.20
2019-01-18T13:03:20.110Z,15.10
2019-01-18T13:06:02.075Z,15.70
2019-01-18T13:08:32.138Z,15.30
2019-01-18T13:11:03.822Z,15.40
2019-01-18T13:13:33.877Z,14.90
2019-01-18T13:16:30.473Z,15.00
2019-01-18T13:19:03.662Z,15.10
2019-01-18T13:21:33.726Z,15.30
2019-01-18T13:24:04.113Z,15.40
2019-01-18T13:26:34.336Z,15.00
2019-01-18T13:29:04.639Z,14.20
2019-01-18T13:31:34.872Z,13.10
2019-01-18T13:34:05.207Z,12.30
2019-01-18T13:36:35.802Z,11.50
2019-01-18T13:39:08.636Z,10.40
2019-01-18T13:41:38.975Z,9.70
2019-01-18T13:44:09.563Z,9.10
2019-01-18T13:46:39.886Z,8.80
2019-01-18T13:49:10.056Z,8.80
2019-01-18T13:51:40.270Z,8.60
2019-01-18T13:54:10.465Z,8.40
2019-01-18T13:56:40.722Z,8.10
2019-01-18T13:59:11.064Z,7.60
2019-01-18T14:01:41.270Z,6.70
2019-01-18T14:04:11.483Z,6.00
2019-01-18T14:06:41.836Z,5.60
2019-01-18T14:09:12.048Z,5.30
2019-01-18T14:11:42.282Z,5.20
2019-01-18T14:14:12.407Z,4.90
2019-01-18T14:16:42.672Z,4.70
2019-01-18T14:19:12.994Z,4.50
2019-01-18T14:21:43.203Z,4.40
2019-01-18T14:24:13.463Z,4.30
2019-01-18T14:26:43.731Z,4.10
2019-01-18T14:29:13.953Z,4.00
2019-01-18T14:31:44.190Z,3.80
2019-01-18T14:34:14.435Z,3.80
2019-01-18T14:36:44.694Z,3.60
2019-01-18T14:39:14.925Z,3.40
2019-01-18T14:41:45.239Z,3.30
2019-01-18T14:44:15.502Z,3.10
2019-01-18T14:46:45.841Z,3.00
2019-01-18T14:49:16.037Z,2.80
2019-01-18T14:51:46.291Z,2.70
2019-01-18T14:54:16.634Z,2.50
2019-01-18T14:56:46.883Z,2.30
2019-01-18T14:59:17.545Z,2.20
2019-01-18T15:01:47.852Z,2.10
2019-01-18T15:04:18.085Z,2.00
2019-01-18T15:06:48.291Z,1.90
2019-01-18T15:09:18.470Z,1.80
2019-01-18T15:11:48.637Z,1.80
2019-01-18T15:14:18.906Z,1.70
2019-01-18T15:16:49.123Z,1.70
2019-01-18T15:19:19.423Z,1.60
2019-01-18T15:21:49.626Z,1.60
2019-01-18T15:24:19.910Z,1.50
2019-01-18T15:26:50.132Z,1.40
2019-01-18T15:29:21.691Z,1.30
2019-01-18T15:31:51.971Z,1.30
2019-01-18T15:34:22.212Z,1.20
2019-01-18T15:36:52.528Z,1.20
2019-01-18T15:39:22.847Z,1.10
2019-01-18T15:41:53.115Z,1.00
2019-01-18T15:44:23.319Z,0.90
2019-01-18T15:46:53.920Z,0.80
2019-01-18T15:49:26.169Z,0.70
2019-01-18T15:51:56.729Z,0.60
2019-01-18T15:54:26.996Z,0.50
2019-01-18T15:56:57.207Z,0.50
2019-01-18T15:59:27.650Z,0.50
2019-01-18T16:01:57.951Z,0.50
2019-01-18T16:04:28.227Z,0.40
2019-01-18T16:06:58.759Z,0.40
2019-01-18T16:09:29.285Z,0.30
2019-01-18T16:11:59.535Z,0.30
2019-01-18T16:14:29.796Z,0.30
2019-01-18T16:17:13.891Z,0.40
2019-01-18T16:19:44.421Z,0.40
2019-01-18T16:22:14.763Z,0.40
2019-01-18T16:24:45.394Z,0.50
2019-01-18T16:27:15.563Z,0.50
2019-01-18T16:29:45.805Z,0.50
2019-01-18T16:32:16.013Z,0.50
2019-01-18T16:34:46.252Z,0.50
2019-01-18T16:37:16.622Z,0.40
2019-01-18T16:39:46.918Z,0.50
2019-01-18T16:42:18.607Z,0.50
2019-01-18T16:44:48.814Z,0.50
2019-01-18T16:47:19.057Z,0.50
2019-01-18T16:49:49.339Z,0.60
2019-01-18T16:52:19.591Z,0.70
2019-01-18T16:54:49.812Z,0.60
2019-01-18T16:57:19.997Z,0.60
2019-01-18T16:59:50.218Z,0.50
2019-01-18T17:02:20.889Z,0.50
2019-01-18T17:04:51.183Z,0.40
2019-01-18T17:07:21.472Z,0.50
2019-01-18T17:09:51.787Z,0.60
2019-01-18T17:12:21.961Z,0.60
2019-01-18T17:14:52.140Z,0.50
2019-01-18T17:17:22.438Z,0.50
2019-01-18T17:19:52.680Z,0.60
2019-01-18T17:22:23.008Z,0.60
2019-01-18T17:24:53.552Z,0.50
2019-01-18T17:27:23.864Z,0.50
2019-01-18T17:29:54.178Z,0.40
2019-01-18T17:32:24.439Z,0.50
2019-01-18T17:34:54.909Z,0.50
2019-01-18T17:37:29.877Z,0.50
2019-01-18T17:40:13.737Z,0.50
2019-01-18T17:43:08.262Z,0.40
2019-01-18T17:46:03.846Z,0.30
2019-01-18T17:49:18.248Z,0.30
2019-01-18T17:52:29.598Z,0.30
2019-01-18T17:55:24.902Z,0.50
2019-01-18T17:58:15.401Z,0.50
2019-01-18T18:01:37.308Z,0.50
2019-01-18T18:04:43.553Z,0.50
2019-01-18T18:07:32.357Z,0.60
2019-01-18T18:10:55.652Z,0.60
2019-01-18T18:13:45.152Z,0.60
2019-01-18T18:16:59.958Z,0.60
2019-01-18T18:19:57.897Z,0.50
2019-01-18T18:23:16.888Z,0.40
2019-01-18T18:26:26.302Z,0.40
2019-01-18T18:29:28.870Z,0.40
2019-01-18T18:32:52.208Z,0.40
2019-01-18T18:35:45.502Z,0.50
2019-01-18T18:38:52.562Z,0.50
2019-01-18T18:42:16.743Z,0.50
2019-01-18T18:45:22.926Z,0.50
2019-01-18T18:48:30.890Z,0.40
2019-01-18T18:51:38.009Z,0.40
2019-01-18T18:54:40.551Z,0.40
2019-01-18T18:57:18.659Z,0.40
2019-01-18T19:00:02.410Z,0.40
2019-01-18T19:02:40.055Z,0.40
2019-01-18T19:05:28.890Z,0.40
2019-01-18T19:08:40.107Z,0.50
2019-01-18T19:11:27.436Z,0.50
2019-01-18T19:14:20.782Z,0.50
2019-01-18T19:17:47.105Z,0.50
2019-01-18T19:21:13.186Z,0.40
2019-01-18T19:23:59.077Z,0.50
2019-01-18T19:26:43.011Z,0.70
2019-01-18T19:29:53.414Z,0.70
2019-01-18T19:32:54.019Z,0.70
2019-01-18T19:36:09.678Z,0.70
2019-01-18T19:39:14.201Z,0.60
2019-01-18T19:42:07.737Z,0.60
2019-01-18T19:45:17.958Z,0.70
2019-01-18T19:48:24.273Z,0.60
2019-01-18T19:51:34.254Z,0.60
2019-01-18T19:54:51.239Z,0.50
2019-01-18T19:57:58.521Z,0.50
2019-01-18T20:00:58.054Z,0.50
2019-01-18T20:03:37.459Z,0.40
2019-01-18T20:06:48.997Z,0.40
2019-01-18T20:09:39.644Z,0.40
2019-01-18T20:12:41.070Z,0.40
2019-01-18T20:15:55.609Z,0.40
2019-01-18T20:18:46.299Z,0.40
2019-01-18T20:21:55.809Z,0.20
2019-01-18T20:25:00.710Z,0.30
2019-01-18T20:28:17.693Z,0.30
2019-01-18T20:31:19.289Z,0.30
2019-01-18T20:34:48.578Z,0.20
2019-01-18T20:37:47.631Z,0.30
2019-01-18T20:40:36.898Z,0.30
2019-01-18T20:43:42.151Z,0.30
2019-01-18T20:46:46.971Z,0.30
2019-01-18T20:50:04.115Z,0.30
2019-01-18T20:52:46.755Z,0.30
2019-01-18T20:55:49.446Z,0.30
2019-01-18T20:59:05.398Z,0.30
2019-01-18T21:02:08.693Z,0.20
2019-01-18T21:05:29.430Z,0.30
2019-01-18T21:08:43.631Z,0.20
2019-01-18T21:12:09.844Z,0.20
2019-01-18T21:15:01.517Z,0.20
2019-01-18T21:18:14.706Z,0.20
2019-01-18T21:21:02.235Z,0.20
2019-01-18T21:24:11.652Z,0.10
2019-01-18T21:27:10.356Z,0.10
2019-01-18T21:30:17.943Z,0.10
2019-01-18T21:33:24.782Z,0.10
2019-01-18T21:36:22.607Z,0.00
2019-01-18T21:39:19.283Z,-0.10
2019-01-18T21:42:32.380Z,-0.10
2019-01-18T21:45:45.156Z,-0.10
2019-01-18T21:48:53.253Z,-0.10
2019-01-18T21:52:04.533Z,-0.10
2019-01-18T21:54:52.120Z,-0.10
2019-01-18T21:57:51.307Z,-0.10
2019-01-18T22:01:17.717Z,-0.20
2019-01-18T22:04:17.695Z,-0.10
2019-01-18T22:07:15.902Z,-0.10
2019-01-18T22:10:03.524Z,-0.10
2019-01-18T22:13:13.035Z,-0.10
2019-01-18T22:16:10.276Z,-0.10
2019-01-18T22:18:57.843Z,-0.10
2019-01-18T22:22:13.034Z,-0.10
2019-01-18T22:25:45.006Z,-0.20
2019-01-18T22:28:46.457Z,-0.20
2019-01-18T22:31:45.711Z,-0.20
2019-01-18T22:34:26.341Z,-0.20
2019-01-18T22:37:37.830Z,-0.20
2019-01-18T22:40:57.752Z,-0.20
2019-01-18T22:44:03.451Z,-0.20
2019-01-18T22:47:30.726Z,-0.10
2019-01-18T22:50:12.263Z,-0.10
2019-01-18T22:53:00.445Z,-0.20
2019-01-18T22:56:00.332Z,-0.20
2019-01-18T22:59:15.030Z,-0.20
2019-01-18T23:02:29.272Z,-0.10
2019-01-18T23:05:36.199Z,-0.10
2019-01-18T23:08:53.609Z,-0.10
2019-01-18T23:12:01.251Z,-0.20
2019-01-18T23:15:02.909Z,-0.20
2019-01-18T23:17:48.250Z,-0.20
2019-01-18T23:21:08.506Z,-0.20
2019-01-18T23:23:56.643Z,-0.10
2019-01-18T23:27:18.562Z,-0.10
2019-01-18T23:30:19.445Z,-0.20
2019-01-18T23:33:16.557Z,-0.10
2019-01-18T23:36:32.985Z,-0.10
2019-01-18T23:39:41.489Z,0.00
2019-01-18T23:42:54.120Z,0.00
2019-01-18T23:46:06.491Z,0.00
2019-01-18T23:48:59.917Z,0.00
2019-01-18T23:52:06.871Z,-0.10
2019-01-18T23:54:53.742Z,-0.10
2019-01-18T23:57:50.792Z,-0.10
